sensor_id;sensor_type;location;lat;lon;timestamp;P1;durP1;ratioP1;P2;durP2;ratioP2
45208;SDS011;30951;43.994;26.260;2023-03-19T00:01:10;25.10;;;16.35;;
45208;SDS011;30951;43.994;26.260;2023-03-19T00:03:36;27.00;;;15.98;;
45208;SDS011;30951;43.994;26.260;2023-03-19T00:06:01;29.20;;;16.95;;
45208;SDS011;30951;43.994;26.260;2023-03-19T00:08:27;25.58;;;15.98;;
45208;SDS011;30951;43.994;26.260;2023-03-19T00:10:52;28.42;;;16.27;;
45208;SDS011;30951;43.994;26.260;2023-03-19T00:13:18;30.00;;;15.50;;
45208;SDS011;30951;43.994;26.260;2023-03-19T00:15:44;28.05;;;16.20;;
45208;SDS011;30951;43.994;26.260;2023-03-19T00:18:09;29.73;;;16.80;;
45208;SDS011;30951;43.994;26.260;2023-03-19T00:20:35;35.50;;;16.20;;
45208;SDS011;30951;43.994;26.260;2023-03-19T00:23:00;24.63;;;15.63;;
45208;SDS011;30951;43.994;26.260;2023-03-19T00:25:26;33.75;;;15.68;;
45208;SDS011;30951;43.994;26.260;2023-03-19T00:27:52;26.48;;;15.30;;
45208;SDS011;30951;43.994;26.260;2023-03-19T00:30:19;29.23;;;15.27;;
45208;SDS011;30951;43.994;26.260;2023-03-19T00:32:45;28.73;;;16.15;;
45208;SDS011;30951;43.994;26.260;2023-03-19T00:35:12;28.73;;;16.02;;
45208;SDS011;30951;43.994;26.260;2023-03-19T00:37:38;23.50;;;14.27;;
45208;SDS011;30951;43.994;26.260;2023-03-19T00:40:03;30.35;;;14.43;;
45208;SDS011;30951;43.994;26.260;2023-03-19T00:42:29;26.17;;;15.45;;
45208;SDS011;30951;43.994;26.260;2023-03-19T00:44:55;24.55;;;14.40;;
45208;SDS011;30951;43.994;26.260;2023-03-19T00:47:21;27.77;;;15.55;;
45208;SDS011;30951;43.994;26.260;2023-03-19T00:49:47;24.40;;;14.90;;
45208;SDS011;30951;43.994;26.260;2023-03-19T00:52:12;30.75;;;15.27;;
45208;SDS011;30951;43.994;26.260;2023-03-19T00:54:38;26.52;;;14.60;;
45208;SDS011;30951;43.994;26.260;2023-03-19T00:57:03;28.70;;;14.95;;
45208;SDS011;30951;43.994;26.260;2023-03-19T00:59:29;30.17;;;15.40;;
45208;SDS011;30951;43.994;26.260;2023-03-19T01:01:55;26.33;;;15.10;;
45208;SDS011;30951;43.994;26.260;2023-03-19T01:04:20;26.88;;;15.45;;
45208;SDS011;30951;43.994;26.260;2023-03-19T01:06:47;27.27;;;15.55;;
45208;SDS011;30951;43.994;26.260;2023-03-19T01:09:13;22.90;;;14.20;;
45208;SDS011;30951;43.994;26.260;2023-03-19T01:11:38;25.20;;;15.68;;
45208;SDS011;30951;43.994;26.260;2023-03-19T01:14:04;27.35;;;15.85;;
45208;SDS011;30951;43.994;26.260;2023-03-19T01:16:30;27.45;;;16.00;;
45208;SDS011;30951;43.994;26.260;2023-03-19T01:18:56;26.30;;;15.75;;
45208;SDS011;30951;43.994;26.260;2023-03-19T01:21:22;30.83;;;15.85;;
45208;SDS011;30951;43.994;26.260;2023-03-19T01:23:48;29.10;;;15.60;;
45208;SDS011;30951;43.994;26.260;2023-03-19T01:26:15;28.52;;;16.23;;
45208;SDS011;30951;43.994;26.260;2023-03-19T01:28:42;29.45;;;16.77;;
45208;SDS011;30951;43.994;26.260;2023-03-19T01:31:08;29.98;;;16.45;;
45208;SDS011;30951;43.994;26.260;2023-03-19T01:33:34;28.02;;;17.08;;
45208;SDS011;30951;43.994;26.260;2023-03-19T01:36:00;32.08;;;17.67;;
45208;SDS011;30951;43.994;26.260;2023-03-19T01:38:29;25.98;;;16.20;;
45208;SDS011;30951;43.994;26.260;2023-03-19T01:40:56;25.65;;;16.25;;
45208;SDS011;30951;43.994;26.260;2023-03-19T01:43:22;31.55;;;16.90;;
45208;SDS011;30951;43.994;26.260;2023-03-19T01:45:49;28.73;;;17.35;;
45208;SDS011;30951;43.994;26.260;2023-03-19T01:48:18;32.50;;;17.17;;
45208;SDS011;30951;43.994;26.260;2023-03-19T01:51:09;27.77;;;16.95;;
45208;SDS011;30951;43.994;26.260;2023-03-19T01:53:36;34.75;;;18.55;;
45208;SDS011;30951;43.994;26.260;2023-03-19T01:56:03;31.23;;;18.60;;
45208;SDS011;30951;43.994;26.260;2023-03-19T01:58:33;41.85;;;22.23;;
45208;SDS011;30951;43.994;26.260;2023-03-19T02:00:58;37.35;;;21.38;;
45208;SDS011;30951;43.994;26.260;2023-03-19T02:03:24;37.85;;;22.35;;
45208;SDS011;30951;43.994;26.260;2023-03-19T02:05:50;44.33;;;23.48;;
45208;SDS011;30951;43.994;26.260;2023-03-19T02:08:17;44.95;;;24.65;;
45208;SDS011;30951;43.994;26.260;2023-03-19T02:10:44;38.17;;;22.55;;
45208;SDS011;30951;43.994;26.260;2023-03-19T02:13:10;38.17;;;23.25;;
45208;SDS011;30951;43.994;26.260;2023-03-19T02:15:36;37.40;;;22.70;;
45208;SDS011;30951;43.994;26.260;2023-03-19T02:18:02;43.83;;;22.90;;
45208;SDS011;30951;43.994;26.260;2023-03-19T02:20:32;40.65;;;22.42;;
45208;SDS011;30951;43.994;26.260;2023-03-19T02:28:11;40.85;;;22.70;;
45208;SDS011;30951;43.994;26.260;2023-03-19T02:30:37;39.90;;;21.15;;
45208;SDS011;30951;43.994;26.260;2023-03-19T02:33:02;39.78;;;21.67;;
45208;SDS011;30951;43.994;26.260;2023-03-19T02:35:29;37.78;;;23.10;;
45208;SDS011;30951;43.994;26.260;2023-03-19T02:37:57;38.80;;;22.10;;
45208;SDS011;30951;43.994;26.260;2023-03-19T02:40:28;41.53;;;21.60;;
45208;SDS011;30951;43.994;26.260;2023-03-19T02:42:55;36.00;;;20.55;;
45208;SDS011;30951;43.994;26.260;2023-03-19T02:45:20;39.15;;;21.30;;
45208;SDS011;30951;43.994;26.260;2023-03-19T02:47:47;39.92;;;20.35;;
45208;SDS011;30951;43.994;26.260;2023-03-19T02:50:12;38.05;;;21.38;;
45208;SDS011;30951;43.994;26.260;2023-03-19T02:52:38;44.05;;;23.75;;
45208;SDS011;30951;43.994;26.260;2023-03-19T02:55:04;41.80;;;24.05;;
45208;SDS011;30951;43.994;26.260;2023-03-19T02:57:30;50.70;;;26.42;;
45208;SDS011;30951;43.994;26.260;2023-03-19T02:59:55;51.05;;;28.13;;
45208;SDS011;30951;43.994;26.260;2023-03-19T03:02:21;52.45;;;33.03;;
45208;SDS011;30951;43.994;26.260;2023-03-19T03:04:46;57.58;;;32.25;;
45208;SDS011;30951;43.994;26.260;2023-03-19T03:07:12;60.67;;;32.97;;
45208;SDS011;30951;43.994;26.260;2023-03-19T03:09:37;63.88;;;35.25;;
45208;SDS011;30951;43.994;26.260;2023-03-19T03:12:03;68.07;;;37.38;;
45208;SDS011;30951;43.994;26.260;2023-03-19T03:14:30;72.40;;;39.60;;
45208;SDS011;30951;43.994;26.260;2023-03-19T03:16:55;70.18;;;40.88;;
45208;SDS011;30951;43.994;26.260;2023-03-19T03:19:21;64.95;;;38.83;;
45208;SDS011;30951;43.994;26.260;2023-03-19T03:21:47;68.72;;;38.33;;
45208;SDS011;30951;43.994;26.260;2023-03-19T03:24:13;61.47;;;36.90;;
45208;SDS011;30951;43.994;26.260;2023-03-19T03:26:38;64.18;;;35.75;;
45208;SDS011;30951;43.994;26.260;2023-03-19T03:29:04;58.42;;;31.67;;
45208;SDS011;30951;43.994;26.260;2023-03-19T03:31:30;54.20;;;30.77;;
45208;SDS011;30951;43.994;26.260;2023-03-19T03:33:55;61.78;;;33.28;;
45208;SDS011;30951;43.994;26.260;2023-03-19T03:36:21;70.90;;;34.30;;
45208;SDS011;30951;43.994;26.260;2023-03-19T03:38:47;54.30;;;29.15;;
45208;SDS011;30951;43.994;26.260;2023-03-19T03:41:12;48.03;;;28.80;;
45208;SDS011;30951;43.994;26.260;2023-03-19T03:43:38;62.13;;;28.75;;
45208;SDS011;30951;43.994;26.260;2023-03-19T03:46:05;54.85;;;31.38;;
45208;SDS011;30951;43.994;26.260;2023-03-19T03:48:31;51.05;;;29.15;;
45208;SDS011;30951;43.994;26.260;2023-03-19T03:50:57;58.03;;;31.77;;
45208;SDS011;30951;43.994;26.260;2023-03-19T03:53:22;57.72;;;32.92;;
45208;SDS011;30951;43.994;26.260;2023-03-19T03:55:48;62.95;;;33.15;;
45208;SDS011;30951;43.994;26.260;2023-03-19T03:58:13;58.83;;;33.35;;
45208;SDS011;30951;43.994;26.260;2023-03-19T04:00:39;61.30;;;33.78;;
45208;SDS011;30951;43.994;26.260;2023-03-19T04:03:04;59.22;;;32.55;;
45208;SDS011;30951;43.994;26.260;2023-03-19T04:05:30;64.82;;;35.22;;
45208;SDS011;30951;43.994;26.260;2023-03-19T04:07:56;67.72;;;35.33;;
45208;SDS011;30951;43.994;26.260;2023-03-19T04:10:22;70.25;;;38.65;;
45208;SDS011;30951;43.994;26.260;2023-03-19T04:12:48;69.07;;;37.83;;
45208;SDS011;30951;43.994;26.260;2023-03-19T04:15:14;67.47;;;35.83;;
45208;SDS011;30951;43.994;26.260;2023-03-19T04:17:41;67.60;;;38.72;;
45208;SDS011;30951;43.994;26.260;2023-03-19T04:20:07;74.35;;;39.88;;
45208;SDS011;30951;43.994;26.260;2023-03-19T04:22:33;71.47;;;37.80;;
45208;SDS011;30951;43.994;26.260;2023-03-19T04:24:59;67.15;;;37.60;;
45208;SDS011;30951;43.994;26.260;2023-03-19T04:27:24;73.43;;;36.90;;
45208;SDS011;30951;43.994;26.260;2023-03-19T04:29:50;71.20;;;38.03;;
45208;SDS011;30951;43.994;26.260;2023-03-19T04:32:16;65.32;;;35.40;;
45208;SDS011;30951;43.994;26.260;2023-03-19T04:34:41;74.00;;;36.83;;
45208;SDS011;30951;43.994;26.260;2023-03-19T04:37:07;66.05;;;35.05;;
45208;SDS011;30951;43.994;26.260;2023-03-19T04:39:34;64.43;;;36.83;;
45208;SDS011;30951;43.994;26.260;2023-03-19T04:42:00;73.40;;;37.13;;
45208;SDS011;30951;43.994;26.260;2023-03-19T04:44:27;74.30;;;38.38;;
45208;SDS011;30951;43.994;26.260;2023-03-19T04:46:53;67.03;;;37.10;;
45208;SDS011;30951;43.994;26.260;2023-03-19T04:49:19;68.05;;;36.50;;
45208;SDS011;30951;43.994;26.260;2023-03-19T04:51:45;71.47;;;36.65;;
45208;SDS011;30951;43.994;26.260;2023-03-19T04:54:10;67.90;;;38.33;;
45208;SDS011;30951;43.994;26.260;2023-03-19T04:56:36;72.15;;;37.92;;
45208;SDS011;30951;43.994;26.260;2023-03-19T04:59:01;59.55;;;35.25;;
45208;SDS011;30951;43.994;26.260;2023-03-19T05:01:28;69.22;;;36.03;;
45208;SDS011;30951;43.994;26.260;2023-03-19T05:03:54;69.60;;;35.92;;
45208;SDS011;30951;43.994;26.260;2023-03-19T05:06:19;63.50;;;34.47;;
45208;SDS011;30951;43.994;26.260;2023-03-19T05:08:45;64.05;;;34.63;;
45208;SDS011;30951;43.994;26.260;2023-03-19T05:11:11;63.20;;;34.90;;
45208;SDS011;30951;43.994;26.260;2023-03-19T05:13:36;76.50;;;38.28;;
45208;SDS011;30951;43.994;26.260;2023-03-19T05:16:02;111.97;;;49.28;;
45208;SDS011;30951;43.994;26.260;2023-03-19T05:18:28;71.70;;;36.28;;
45208;SDS011;30951;43.994;26.260;2023-03-19T05:20:54;61.13;;;34.17;;
45208;SDS011;30951;43.994;26.260;2023-03-19T05:23:20;73.13;;;38.83;;
45208;SDS011;30951;43.994;26.260;2023-03-19T05:25:47;77.78;;;42.45;;
45208;SDS011;30951;43.994;26.260;2023-03-19T05:28:13;80.70;;;43.10;;
45208;SDS011;30951;43.994;26.260;2023-03-19T05:30:39;78.20;;;45.08;;
45208;SDS011;30951;43.994;26.260;2023-03-19T05:33:05;65.55;;;35.97;;
45208;SDS011;30951;43.994;26.260;2023-03-19T05:35:31;62.17;;;36.38;;
45208;SDS011;30951;43.994;26.260;2023-03-19T05:37:56;61.80;;;36.47;;
45208;SDS011;30951;43.994;26.260;2023-03-19T05:40:22;73.18;;;44.83;;
45208;SDS011;30951;43.994;26.260;2023-03-19T05:42:50;68.25;;;38.00;;
45208;SDS011;30951;43.994;26.260;2023-03-19T05:45:15;59.47;;;33.88;;
45208;SDS011;30951;43.994;26.260;2023-03-19T05:47:47;59.85;;;31.75;;
45208;SDS011;30951;43.994;26.260;2023-03-19T05:50:14;51.63;;;28.23;;
45208;SDS011;30951;43.994;26.260;2023-03-19T05:52:41;50.38;;;27.83;;
45208;SDS011;30951;43.994;26.260;2023-03-19T05:55:07;54.65;;;28.98;;
45208;SDS011;30951;43.994;26.260;2023-03-19T05:57:33;53.67;;;30.83;;
45208;SDS011;30951;43.994;26.260;2023-03-19T05:59:59;55.85;;;31.33;;
45208;SDS011;30951;43.994;26.260;2023-03-19T06:02:26;52.88;;;31.33;;
45208;SDS011;30951;43.994;26.260;2023-03-19T06:04:51;52.97;;;29.02;;
45208;SDS011;30951;43.994;26.260;2023-03-19T06:07:17;51.17;;;29.20;;
45208;SDS011;30951;43.994;26.260;2023-03-19T06:09:43;56.35;;;31.02;;
45208;SDS011;30951;43.994;26.260;2023-03-19T06:12:09;52.45;;;29.33;;
45208;SDS011;30951;43.994;26.260;2023-03-19T06:14:35;58.67;;;30.98;;
45208;SDS011;30951;43.994;26.260;2023-03-19T06:17:00;54.35;;;31.27;;
45208;SDS011;30951;43.994;26.260;2023-03-19T06:19:26;54.60;;;30.45;;
45208;SDS011;30951;43.994;26.260;2023-03-19T06:21:52;62.67;;;30.35;;
45208;SDS011;30951;43.994;26.260;2023-03-19T06:24:17;49.72;;;26.50;;
45208;SDS011;30951;43.994;26.260;2023-03-19T06:26:43;50.75;;;27.00;;
45208;SDS011;30951;43.994;26.260;2023-03-19T06:29:09;51.38;;;24.65;;
45208;SDS011;30951;43.994;26.260;2023-03-19T06:31:34;48.67;;;26.58;;
45208;SDS011;30951;43.994;26.260;2023-03-19T06:34:00;53.60;;;27.63;;
45208;SDS011;30951;43.994;26.260;2023-03-19T06:36:26;48.40;;;27.10;;
45208;SDS011;30951;43.994;26.260;2023-03-19T06:38:52;46.65;;;26.80;;
45208;SDS011;30951;43.994;26.260;2023-03-19T06:41:18;48.58;;;27.75;;
45208;SDS011;30951;43.994;26.260;2023-03-19T06:43:43;47.58;;;28.35;;
45208;SDS011;30951;43.994;26.260;2023-03-19T06:46:09;53.67;;;28.85;;
45208;SDS011;30951;43.994;26.260;2023-03-19T06:48:35;49.53;;;27.33;;
45208;SDS011;30951;43.994;26.260;2023-03-19T06:51:00;54.85;;;29.27;;
45208;SDS011;30951;43.994;26.260;2023-03-19T06:53:26;51.63;;;27.88;;
45208;SDS011;30951;43.994;26.260;2023-03-19T06:55:52;48.53;;;27.10;;
45208;SDS011;30951;43.994;26.260;2023-03-19T06:58:18;46.13;;;27.15;;
45208;SDS011;30951;43.994;26.260;2023-03-19T07:00:43;45.40;;;24.92;;
45208;SDS011;30951;43.994;26.260;2023-03-19T07:03:09;44.22;;;24.95;;
45208;SDS011;30951;43.994;26.260;2023-03-19T07:05:35;44.17;;;25.17;;
45208;SDS011;30951;43.994;26.260;2023-03-19T07:08:01;44.33;;;24.17;;
45208;SDS011;30951;43.994;26.260;2023-03-19T07:10:26;44.47;;;24.23;;
45208;SDS011;30951;43.994;26.260;2023-03-19T07:12:52;45.10;;;23.38;;
45208;SDS011;30951;43.994;26.260;2023-03-19T07:15:18;43.83;;;25.13;;
45208;SDS011;30951;43.994;26.260;2023-03-19T07:17:45;42.03;;;22.60;;
45208;SDS011;30951;43.994;26.260;2023-03-19T07:20:12;40.55;;;24.27;;
45208;SDS011;30951;43.994;26.260;2023-03-19T07:22:38;40.60;;;21.95;;
45208;SDS011;30951;43.994;26.260;2023-03-19T07:25:04;38.45;;;22.10;;
45208;SDS011;30951;43.994;26.260;2023-03-19T07:27:30;34.70;;;20.63;;
45208;SDS011;30951;43.994;26.260;2023-03-19T07:29:55;40.78;;;21.98;;
45208;SDS011;30951;43.994;26.260;2023-03-19T07:32:21;35.65;;;21.23;;
45208;SDS011;30951;43.994;26.260;2023-03-19T07:34:47;39.60;;;23.55;;
45208;SDS011;30951;43.994;26.260;2023-03-19T07:37:13;36.22;;;20.90;;
45208;SDS011;30951;43.994;26.260;2023-03-19T07:39:39;40.03;;;24.00;;
45208;SDS011;30951;43.994;26.260;2023-03-19T07:42:05;32.95;;;20.50;;
45208;SDS011;30951;43.994;26.260;2023-03-19T07:44:30;30.05;;;20.08;;
45208;SDS011;30951;43.994;26.260;2023-03-19T07:46:56;37.30;;;21.17;;
45208;SDS011;30951;43.994;26.260;2023-03-19T07:49:22;30.77;;;18.30;;
45208;SDS011;30951;43.994;26.260;2023-03-19T07:51:47;30.45;;;17.30;;
45208;SDS011;30951;43.994;26.260;2023-03-19T07:54:13;24.88;;;16.70;;
45208;SDS011;30951;43.994;26.260;2023-03-19T07:56:39;22.60;;;14.25;;
45208;SDS011;30951;43.994;26.260;2023-03-19T07:59:05;26.90;;;15.02;;
45208;SDS011;30951;43.994;26.260;2023-03-19T08:01:31;22.67;;;14.48;;
45208;SDS011;30951;43.994;26.260;2023-03-19T08:03:56;26.58;;;15.55;;
45208;SDS011;30951;43.994;26.260;2023-03-19T08:06:22;27.52;;;16.02;;
45208;SDS011;30951;43.994;26.260;2023-03-19T08:08:47;27.17;;;15.68;;
45208;SDS011;30951;43.994;26.260;2023-03-19T08:11:13;23.88;;;15.50;;
45208;SDS011;30951;43.994;26.260;2023-03-19T08:13:39;26.77;;;14.82;;
45208;SDS011;30951;43.994;26.260;2023-03-19T08:16:05;29.10;;;18.48;;
45208;SDS011;30951;43.994;26.260;2023-03-19T08:18:31;28.55;;;17.95;;
45208;SDS011;30951;43.994;26.260;2023-03-19T08:20:56;25.35;;;16.27;;
45208;SDS011;30951;43.994;26.260;2023-03-19T08:23:22;28.02;;;17.08;;
45208;SDS011;30951;43.994;26.260;2023-03-19T08:25:47;25.70;;;16.05;;
45208;SDS011;30951;43.994;26.260;2023-03-19T08:28:15;22.58;;;15.27;;
45208;SDS011;30951;43.994;26.260;2023-03-19T08:30:41;24.77;;;16.55;;
45208;SDS011;30951;43.994;26.260;2023-03-19T08:33:06;26.50;;;16.13;;
45208;SDS011;30951;43.994;26.260;2023-03-19T08:35:32;24.98;;;15.82;;
45208;SDS011;30951;43.994;26.260;2023-03-19T08:37:58;26.65;;;16.25;;
45208;SDS011;30951;43.994;26.260;2023-03-19T08:40:24;26.52;;;16.88;;
45208;SDS011;30951;43.994;26.260;2023-03-19T08:42:49;24.52;;;16.00;;
45208;SDS011;30951;43.994;26.260;2023-03-19T08:45:15;25.40;;;15.15;;
45208;SDS011;30951;43.994;26.260;2023-03-19T08:47:41;26.15;;;15.85;;
45208;SDS011;30951;43.994;26.260;2023-03-19T08:50:07;23.45;;;14.93;;
45208;SDS011;30951;43.994;26.260;2023-03-19T08:52:34;25.80;;;16.33;;
45208;SDS011;30951;43.994;26.260;2023-03-19T08:54:59;25.42;;;16.48;;
45208;SDS011;30951;43.994;26.260;2023-03-19T08:57:25;25.88;;;14.93;;
45208;SDS011;30951;43.994;26.260;2023-03-19T08:59:51;25.33;;;15.20;;
45208;SDS011;30951;43.994;26.260;2023-03-19T09:02:17;23.05;;;14.93;;
45208;SDS011;30951;43.994;26.260;2023-03-19T09:04:42;24.42;;;15.10;;
45208;SDS011;30951;43.994;26.260;2023-03-19T09:07:08;26.02;;;16.08;;
45208;SDS011;30951;43.994;26.260;2023-03-19T09:09:39;25.10;;;15.85;;
45208;SDS011;30951;43.994;26.260;2023-03-19T09:12:06;23.42;;;15.98;;
45208;SDS011;30951;43.994;26.260;2023-03-19T09:14:32;24.17;;;16.17;;
45208;SDS011;30951;43.994;26.260;2023-03-19T09:16:59;24.15;;;15.90;;
45208;SDS011;30951;43.994;26.260;2023-03-19T09:19:24;25.60;;;15.45;;
45208;SDS011;30951;43.994;26.260;2023-03-19T09:21:50;23.98;;;15.88;;
45208;SDS011;30951;43.994;26.260;2023-03-19T09:24:16;25.80;;;16.13;;
45208;SDS011;30951;43.994;26.260;2023-03-19T09:26:42;24.80;;;15.35;;
45208;SDS011;30951;43.994;26.260;2023-03-19T09:29:08;24.60;;;15.75;;
45208;SDS011;30951;43.994;26.260;2023-03-19T09:31:33;24.35;;;16.02;;
45208;SDS011;30951;43.994;26.260;2023-03-19T09:34:00;23.35;;;16.45;;
45208;SDS011;30951;43.994;26.260;2023-03-19T09:36:25;25.52;;;16.33;;
45208;SDS011;30951;43.994;26.260;2023-03-19T09:38:51;23.65;;;14.95;;
45208;SDS011;30951;43.994;26.260;2023-03-19T09:41:19;23.65;;;15.73;;
45208;SDS011;30951;43.994;26.260;2023-03-19T09:46:17;24.63;;;16.05;;
45208;SDS011;30951;43.994;26.260;2023-03-19T09:48:55;28.57;;;16.97;;
45208;SDS011;30951;43.994;26.260;2023-03-19T09:51:25;24.08;;;15.43;;
45208;SDS011;30951;43.994;26.260;2023-03-19T09:53:55;24.15;;;16.50;;
45208;SDS011;30951;43.994;26.260;2023-03-19T09:56:23;23.23;;;15.93;;
45208;SDS011;30951;43.994;26.260;2023-03-19T09:58:49;24.20;;;16.15;;
45208;SDS011;30951;43.994;26.260;2023-03-19T10:01:21;26.15;;;15.52;;
45208;SDS011;30951;43.994;26.260;2023-03-19T10:06:54;26.13;;;16.48;;
45208;SDS011;30951;43.994;26.260;2023-03-19T10:09:40;22.85;;;15.73;;
45208;SDS011;30951;43.994;26.260;2023-03-19T10:12:20;23.95;;;15.70;;
45208;SDS011;30951;43.994;26.260;2023-03-19T10:17:59;24.48;;;15.80;;
45208;SDS011;30951;43.994;26.260;2023-03-19T10:23:36;21.67;;;14.18;;
45208;SDS011;30951;43.994;26.260;2023-03-19T10:26:04;29.08;;;16.08;;
45208;SDS011;30951;43.994;26.260;2023-03-19T10:28:33;26.30;;;16.70;;
45208;SDS011;30951;43.994;26.260;2023-03-19T10:31:10;22.75;;;15.02;;
45208;SDS011;30951;43.994;26.260;2023-03-19T10:33:43;24.60;;;15.32;;
45208;SDS011;30951;43.994;26.260;2023-03-19T10:36:15;23.52;;;15.85;;
45208;SDS011;30951;43.994;26.260;2023-03-19T10:38:44;25.27;;;16.02;;
45208;SDS011;30951;43.994;26.260;2023-03-19T10:41:24;28.40;;;15.07;;
45208;SDS011;30951;43.994;26.260;2023-03-19T10:44:04;25.63;;;16.23;;
45208;SDS011;30951;43.994;26.260;2023-03-19T10:46:38;25.83;;;15.23;;
45208;SDS011;30951;43.994;26.260;2023-03-19T10:49:04;34.90;;;16.42;;
45208;SDS011;30951;43.994;26.260;2023-03-19T10:51:29;19.75;;;13.60;;
45208;SDS011;30951;43.994;26.260;2023-03-19T10:53:55;25.38;;;14.30;;
45208;SDS011;30951;43.994;26.260;2023-03-19T10:56:25;24.40;;;14.55;;
45208;SDS011;30951;43.994;26.260;2023-03-19T10:58:59;22.85;;;14.65;;
45208;SDS011;30951;43.994;26.260;2023-03-19T11:01:33;26.35;;;14.43;;
45208;SDS011;30951;43.994;26.260;2023-03-19T11:04:01;22.40;;;14.98;;
45208;SDS011;30951;43.994;26.260;2023-03-19T11:06:37;19.85;;;14.18;;
45208;SDS011;30951;43.994;26.260;2023-03-19T11:11:44;23.42;;;15.52;;
45208;SDS011;30951;43.994;26.260;2023-03-19T11:17:15;21.85;;;13.82;;
45208;SDS011;30951;43.994;26.260;2023-03-19T11:19:42;22.20;;;13.20;;
45208;SDS011;30951;43.994;26.260;2023-03-19T11:22:24;18.33;;;12.90;;
45208;SDS011;30951;43.994;26.260;2023-03-19T11:25:13;19.75;;;12.57;;
45208;SDS011;30951;43.994;26.260;2023-03-19T11:27:43;20.10;;;13.27;;
45208;SDS011;30951;43.994;26.260;2023-03-19T11:30:18;18.27;;;12.82;;
45208;SDS011;30951;43.994;26.260;2023-03-19T11:44:17;19.13;;;12.77;;
45208;SDS011;30951;43.994;26.260;2023-03-19T11:47:12;16.88;;;11.85;;
45208;SDS011;30951;43.994;26.260;2023-03-19T11:49:47;18.55;;;13.05;;
45208;SDS011;30951;43.994;26.260;2023-03-19T11:52:34;20.15;;;13.98;;
45208;SDS011;30951;43.994;26.260;2023-03-19T11:55:10;20.08;;;12.98;;
45208;SDS011;30951;43.994;26.260;2023-03-19T12:00:47;20.00;;;13.85;;
45208;SDS011;30951;43.994;26.260;2023-03-19T12:06:09;20.80;;;13.77;;
45208;SDS011;30951;43.994;26.260;2023-03-19T12:28:31;26.10;;;14.30;;
45208;SDS011;30951;43.994;26.260;2023-03-19T12:36:44;23.10;;;14.02;;
45208;SDS011;30951;43.994;26.260;2023-03-19T12:39:16;22.45;;;13.73;;
45208;SDS011;30951;43.994;26.260;2023-03-19T12:41:44;22.77;;;14.27;;
45208;SDS011;30951;43.994;26.260;2023-03-19T12:44:16;24.13;;;14.52;;
45208;SDS011;30951;43.994;26.260;2023-03-19T12:47:30;20.60;;;13.52;;
45208;SDS011;30951;43.994;26.260;2023-03-19T12:49:43;19.65;;;12.90;;
45208;SDS011;30951;43.994;26.260;2023-03-19T12:52:35;19.88;;;12.70;;
45208;SDS011;30951;43.994;26.260;2023-03-19T12:57:57;21.35;;;13.60;;
45208;SDS011;30951;43.994;26.260;2023-03-19T13:00:29;24.35;;;14.10;;
45208;SDS011;30951;43.994;26.260;2023-03-19T13:05:46;14.85;;;11.35;;
45208;SDS011;30951;43.994;26.260;2023-03-19T13:19:58;21.45;;;12.70;;
45208;SDS011;30951;43.994;26.260;2023-03-19T13:22:30;19.52;;;11.68;;
45208;SDS011;30951;43.994;26.260;2023-03-19T13:24:59;15.48;;;11.65;;
45208;SDS011;30951;43.994;26.260;2023-03-19T13:27:28;16.42;;;11.57;;
45208;SDS011;30951;43.994;26.260;2023-03-19T13:32:28;22.93;;;11.90;;
45208;SDS011;30951;43.994;26.260;2023-03-19T13:37:57;18.88;;;11.15;;
45208;SDS011;30951;43.994;26.260;2023-03-19T13:40:36;16.75;;;11.07;;
45208;SDS011;30951;43.994;26.260;2023-03-19T13:48:38;15.80;;;10.55;;
45208;SDS011;30951;43.994;26.260;2023-03-19T13:53:40;16.35;;;10.88;;
45208;SDS011;30951;43.994;26.260;2023-03-19T13:56:16;16.05;;;10.82;;
45208;SDS011;30951;43.994;26.260;2023-03-19T13:58:50;16.67;;;10.82;;
45208;SDS011;30951;43.994;26.260;2023-03-19T14:03:52;17.08;;;10.70;;
45208;SDS011;30951;43.994;26.260;2023-03-19T14:06:40;13.35;;;9.82;;
45208;SDS011;30951;43.994;26.260;2023-03-19T14:09:29;15.05;;;10.13;;
45208;SDS011;30951;43.994;26.260;2023-03-19T14:14:38;15.75;;;10.43;;
45208;SDS011;30951;43.994;26.260;2023-03-19T14:17:10;15.15;;;9.48;;
45208;SDS011;30951;43.994;26.260;2023-03-19T14:19:39;13.18;;;10.10;;
45208;SDS011;30951;43.994;26.260;2023-03-19T14:22:08;13.30;;;9.73;;
45208;SDS011;30951;43.994;26.260;2023-03-19T14:24:42;13.00;;;9.75;;
45208;SDS011;30951;43.994;26.260;2023-03-19T14:27:36;15.13;;;10.50;;
45208;SDS011;30951;43.994;26.260;2023-03-19T14:30:09;14.85;;;10.07;;
45208;SDS011;30951;43.994;26.260;2023-03-19T14:32:40;16.45;;;10.35;;
45208;SDS011;30951;43.994;26.260;2023-03-19T14:35:06;14.30;;;10.10;;
45208;SDS011;30951;43.994;26.260;2023-03-19T14:40:11;19.65;;;10.48;;
45208;SDS011;30951;43.994;26.260;2023-03-19T14:56:11;13.63;;;9.98;;
45208;SDS011;30951;43.994;26.260;2023-03-19T14:58:49;14.80;;;9.80;;
45208;SDS011;30951;43.994;26.260;2023-03-19T15:01:15;17.13;;;9.63;;
45208;SDS011;30951;43.994;26.260;2023-03-19T15:03:41;14.52;;;9.30;;
45208;SDS011;30951;43.994;26.260;2023-03-19T15:06:09;11.55;;;9.18;;
45208;SDS011;30951;43.994;26.260;2023-03-19T15:08:36;13.93;;;9.88;;
45208;SDS011;30951;43.994;26.260;2023-03-19T15:19:12;16.50;;;10.75;;
45208;SDS011;30951;43.994;26.260;2023-03-19T15:21:37;19.83;;;10.70;;
45208;SDS011;30951;43.994;26.260;2023-03-19T15:24:04;17.50;;;9.82;;
45208;SDS011;30951;43.994;26.260;2023-03-19T15:26:34;16.33;;;10.45;;
45208;SDS011;30951;43.994;26.260;2023-03-19T15:29:01;13.00;;;9.02;;
45208;SDS011;30951;43.994;26.260;2023-03-19T15:34:26;14.82;;;9.70;;
45208;SDS011;30951;43.994;26.260;2023-03-19T15:36:57;16.17;;;9.95;;
45208;SDS011;30951;43.994;26.260;2023-03-19T15:39:27;17.05;;;10.73;;
45208;SDS011;30951;43.994;26.260;2023-03-19T15:41:55;13.68;;;10.13;;
45208;SDS011;30951;43.994;26.260;2023-03-19T15:46:52;25.15;;;10.43;;
45208;SDS011;30951;43.994;26.260;2023-03-19T15:49:24;15.38;;;10.02;;
45208;SDS011;30951;43.994;26.260;2023-03-19T15:51:54;15.82;;;9.65;;
45208;SDS011;30951;43.994;26.260;2023-03-19T15:54:23;15.83;;;9.63;;
45208;SDS011;30951;43.994;26.260;2023-03-19T15:56:49;14.60;;;9.57;;
45208;SDS011;30951;43.994;26.260;2023-03-19T15:59:16;14.68;;;10.23;;
45208;SDS011;30951;43.994;26.260;2023-03-19T16:01:42;15.35;;;9.88;;
45208;SDS011;30951;43.994;26.260;2023-03-19T16:04:11;16.00;;;10.25;;
45208;SDS011;30951;43.994;26.260;2023-03-19T16:06:40;15.05;;;9.30;;
45208;SDS011;30951;43.994;26.260;2023-03-19T16:09:12;15.82;;;9.70;;
45208;SDS011;30951;43.994;26.260;2023-03-19T16:11:44;15.18;;;9.75;;
45208;SDS011;30951;43.994;26.260;2023-03-19T16:16:39;15.77;;;8.77;;
45208;SDS011;30951;43.994;26.260;2023-03-19T16:19:24;15.15;;;9.30;;
45208;SDS011;30951;43.994;26.260;2023-03-19T16:21:54;13.80;;;8.80;;
45208;SDS011;30951;43.994;26.260;2023-03-19T16:24:30;14.65;;;9.02;;
45208;SDS011;30951;43.994;26.260;2023-03-19T16:26:58;20.48;;;9.70;;
45208;SDS011;30951;43.994;26.260;2023-03-19T16:29:35;17.08;;;9.80;;